Weather History for Paris, TX

Change the Weather History Date:

Thursday, March 7, 2013

  Actual Average Record
Temperature  
Mean Temperature 50 °F -  
Max Temperature 66 °F 60 °F 77 °F (2006)
Min Temperature 35 °F 40 °F 32 °F (2014)
Degree Days  
Heating Degree Days 14    
Moisture  
Dew Point 27 °F    
Average Humidity 44    
Maximum Humidity 70    
Minimum Humidity 23    
Precipitation  
Precipitation 0.00 in - - ()
Sea Level Pressure  
Sea Level Pressure 30.23 in    
Wind  
Wind Speed 11 mph (SE)    
Max Wind Speed 18 mph    
Max Gust Speed 28 mph    
Visibility 10 miles    
Events      
Averages and records for this station are not official NWS values.
T = Trace of Precipitation, MM = Missing Value Source: NWS Daily Summary

Daily Weather History Graph

Daily Weather History Graph

Search for Another Location

Airport:

Trip Planner

Search our weather history database for the weather conditions in past years. The results will help you decide how hot, cold, wet, or windy it might be!

Date:

Astronomy

Mar. 07, 2013 Rise Set
Actual Time 6:42 AM CST 6:23 PM CST
Civil Twilight 6:17 AM CST 6:48 PM CST
Nautical Twilight 5:48 AM CST 7:17 PM CST
Astronomical Twilight 5:19 AM CST 7:46 PM CST
Moon 3:32 AM CST (3/7) 2:22 PM CST (3/7)
Length of Visible Light 12h 31m
Length of Day
11h 41m
Waning Crescent, 20% of the Moon is Illuminated
Mar 7
Waning Crescent
Mar 11
New
Mar 19
First Quarter
Mar 27
Full
Apr 2
Last Quarter

Hourly Weather History & Observations

Time (CST) Temp. Windchill Dew Point Humidity Pressure Visibility Wind Dir Wind Speed Gust Speed Precip Events Conditions
12:15 AM 39.2 °F 33.0 °F 24.8 °F 56% 30.23 in 10.0 mi SE 9.2 mph - N/A   Clear
12:35 AM 39.2 °F 33.6 °F 23.0 °F 52% 30.23 in 9.0 mi SE 8.1 mph - N/A   Clear
12:55 AM 39.2 °F 34.2 °F 21.2 °F 49% 30.23 in 10.0 mi SE 6.9 mph - N/A   Clear
1:15 AM 39.2 °F 34.2 °F 21.2 °F 49% 30.23 in 10.0 mi SE 6.9 mph - N/A   Clear
1:35 AM 39.2 °F 35.0 °F 21.2 °F 49% 30.24 in 10.0 mi ESE 5.8 mph - N/A   Clear
1:55 AM 39.2 °F 35.9 °F 21.2 °F 49% 30.24 in 10.0 mi ESE 4.6 mph - N/A   Clear
2:15 AM 39.2 °F 37.0 °F 21.2 °F 49% 30.24 in 10.0 mi ESE 3.5 mph - N/A   Clear
2:35 AM 41.0 °F 38.0 °F 19.4 °F 42% 30.24 in 10.0 mi ESE 4.6 mph - N/A   Clear
2:55 AM 37.4 °F 32.1 °F 21.2 °F 52% 30.24 in 10.0 mi East 6.9 mph - N/A   Clear
3:15 AM 37.4 °F 31.4 °F 21.2 °F 52% 30.23 in 10.0 mi ESE 8.1 mph - N/A   Clear
3:35 AM 35.6 °F 28.6 °F 23.0 °F 60% 30.23 in 10.0 mi East 9.2 mph - N/A   Clear
3:55 AM 37.4 °F 30.8 °F 21.2 °F 52% 30.23 in 10.0 mi East 9.2 mph - N/A   Clear
4:15 AM 37.4 °F 30.8 °F 21.2 °F 52% 30.25 in 10.0 mi East 9.2 mph - N/A   Clear
4:35 AM 37.4 °F 30.3 °F 23.0 °F 56% 30.25 in 10.0 mi East 10.4 mph - N/A   Clear
4:55 AM 37.4 °F 29.8 °F 23.0 °F 56% 30.25 in 10.0 mi East 11.5 mph - N/A   Clear
5:15 AM 37.4 °F 29.8 °F 24.8 °F 60% 30.25 in 10.0 mi East 11.5 mph - N/A   Clear
5:35 AM 37.4 °F 29.3 °F 24.8 °F 60% 30.25 in 10.0 mi East 12.7 mph - N/A   Clear
5:55 AM 37.4 °F 29.3 °F 26.6 °F 65% 30.25 in 10.0 mi East 12.7 mph - N/A   Clear
6:15 AM 35.6 °F 27.1 °F 26.6 °F 70% 30.26 in 10.0 mi East 12.7 mph - N/A   Clear
6:35 AM 37.4 °F 29.3 °F 26.6 °F 65% 30.27 in 10.0 mi East 12.7 mph - N/A   Clear
6:55 AM 35.6 °F 27.5 °F 26.6 °F 70% 30.28 in 10.0 mi East 11.5 mph - N/A   Clear
7:15 AM 37.4 °F 30.3 °F 28.4 °F 70% 30.29 in 10.0 mi ESE 10.4 mph - N/A   Clear
7:35 AM 37.4 °F 30.3 °F 28.4 °F 70% 30.30 in 10.0 mi ESE 10.4 mph - N/A   Clear
7:55 AM 39.2 °F 30.8 °F 30.2 °F 70% 30.30 in 10.0 mi ESE 15.0 mph - N/A   Clear
8:15 AM 42.8 °F 35.4 °F 30.2 °F 61% 30.31 in 10.0 mi ESE 15.0 mph - N/A   Clear
8:35 AM 44.6 °F 36.9 °F 30.2 °F 57% 30.31 in 10.0 mi ESE 18.4 mph - N/A   Clear
8:55 AM 44.6 °F 38.1 °F 30.2 °F 57% 30.31 in 10.0 mi SE 13.8 mph 19.6 mph N/A   Clear
9:15 AM 46.4 °F 40.4 °F 30.2 °F 53% 30.31 in 10.0 mi SE 13.8 mph - N/A   Clear
9:35 AM 48.2 °F - 30.2 °F 50% 30.31 in 10.0 mi ESE 12.7 mph - N/A   Clear
9:55 AM 50.0 °F - 30.2 °F 47% 30.31 in 10.0 mi SE 12.7 mph - N/A   Clear
10:15 AM 51.8 °F - 30.2 °F 44% 30.30 in 10.0 mi SE 13.8 mph 20.7 mph N/A   Clear
10:35 AM 53.6 °F - 32.0 °F 44% 30.30 in 10.0 mi SE 12.7 mph - N/A   Clear
10:55 AM 55.4 °F - 32.0 °F 41% 30.30 in 10.0 mi SSE 12.7 mph - N/A   Clear
11:15 AM 57.2 °F - 32.0 °F 38% 30.30 in 10.0 mi SSE 12.7 mph - N/A   Clear
11:35 AM 59.0 °F - 30.2 °F 34% 30.29 in 10.0 mi SSE 17.3 mph 21.9 mph N/A   Clear
11:55 AM 60.8 °F - 30.2 °F 31% 30.28 in 10.0 mi SSE 15.0 mph 24.2 mph N/A   Clear
12:15 PM 60.8 °F - 30.2 °F 31% 30.27 in 10.0 mi SSE 16.1 mph 19.6 mph N/A   Clear
12:35 PM 62.6 °F - 30.2 °F 30% 30.26 in 10.0 mi SSE 15.0 mph - N/A   Clear
12:55 PM 62.6 °F - 30.2 °F 30% 30.25 in 10.0 mi South 16.1 mph 20.7 mph N/A   Clear
1:15 PM 64.4 °F - 30.2 °F 28% 30.24 in 10.0 mi SSE 13.8 mph 20.7 mph N/A   Clear
1:35 PM 64.4 °F - 30.2 °F 28% 30.23 in 10.0 mi SSE 13.8 mph 19.6 mph N/A   Clear
1:55 PM 64.4 °F - 30.2 °F 28% 30.21 in 10.0 mi SSE 18.4 mph - N/A   Clear
2:15 PM 66.2 °F - 28.4 °F 24% 30.20 in 10.0 mi South 11.5 mph 20.7 mph N/A   Clear
2:35 PM 66.2 °F - 28.4 °F 24% 30.20 in 10.0 mi SSE 15.0 mph 18.4 mph N/A   Clear
2:55 PM 66.2 °F - 28.4 °F 24% 30.19 in 10.0 mi SE 11.5 mph - N/A   Clear
3:15 PM 66.2 °F - 28.4 °F 24% 30.18 in 10.0 mi SSE 11.5 mph - N/A   Clear
3:35 PM 66.2 °F - 28.4 °F 24% 30.18 in 10.0 mi SSE 12.7 mph 24.2 mph N/A   Clear
3:55 PM 66.2 °F - 28.4 °F 24% 30.17 in 10.0 mi SE 18.4 mph 27.6 mph N/A   Clear
4:15 PM 66.2 °F - 28.4 °F 24% 30.17 in 10.0 mi SSE 16.1 mph - N/A   Clear
4:35 PM 66.2 °F - 26.6 °F 23% 30.17 in 10.0 mi SSE 15.0 mph - N/A   Clear
4:55 PM 66.2 °F - 28.4 °F 24% 30.17 in 10.0 mi SSE 12.7 mph - N/A   Clear
5:15 PM 64.4 °F - 26.6 °F 24% 30.16 in 10.0 mi SSE 15.0 mph - N/A   Clear
5:35 PM 64.4 °F - 28.4 °F 26% 30.16 in 10.0 mi SSE 13.8 mph - N/A   Clear
5:55 PM 62.6 °F - 28.4 °F 27% 30.16 in 10.0 mi SE 10.4 mph - N/A   Clear
6:35 PM 57.2 °F - 28.4 °F 33% 30.17 in 10.0 mi ESE 10.4 mph - N/A   Clear
6:55 PM 55.4 °F - 30.2 °F 38% 30.17 in 10.0 mi SE 9.2 mph - N/A   Clear
7:15 PM 53.6 °F - 30.2 °F 41% 30.17 in 10.0 mi SE 10.4 mph - N/A   Clear
7:35 PM 51.8 °F - 28.4 °F 41% 30.18 in 10.0 mi SE 11.5 mph - N/A   Clear
7:55 PM 53.6 °F - 28.4 °F 38% 30.18 in 10.0 mi SE 11.5 mph - N/A   Clear
8:15 PM 51.8 °F - 28.4 °F 41% 30.18 in 10.0 mi SE 10.4 mph - N/A   Clear
8:35 PM 51.8 °F - 28.4 °F 41% 30.18 in 10.0 mi SE 11.5 mph - N/A   Clear
8:55 PM 50.0 °F - 28.4 °F 43% 30.19 in 10.0 mi SE 10.4 mph - N/A   Clear
9:15 PM 50.0 °F - 28.4 °F 43% 30.19 in 10.0 mi SE 10.4 mph - N/A   Clear
9:35 PM 50.0 °F - 28.4 °F 43% 30.19 in 10.0 mi ESE 11.5 mph - N/A   Clear
10:15 PM 50.0 °F - 28.4 °F 43% 30.20 in 10.0 mi SE 11.5 mph - N/A   Clear
10:55 PM 48.2 °F - 28.4 °F 46% 30.19 in 10.0 mi ESE 11.5 mph - N/A   Clear
11:15 PM 48.2 °F - 28.4 °F 46% 30.18 in 10.0 mi ESE 11.5 mph - N/A   Clear
11:35 PM 48.2 °F - 28.4 °F 46% 30.19 in 10.0 mi ESE 10.4 mph - N/A   Clear
11:55 PM 48.2 °F - 28.4 °F 46% 30.18 in 10.0 mi SE 10.4 mph - N/A   Clear